sensor_id;sensor_type;location;lat;lon;timestamp;pressure;altitude;pressure_sealevel;temperature
78961;BMP280;68362;45.970;12.646;2023-12-20T00:00:58;101290.84;;;1.31
78961;BMP280;68362;45.970;12.646;2023-12-20T00:02:13;101291.22;;;1.07
78961;BMP280;68362;45.970;12.646;2023-12-20T00:03:16;101290.91;;;0.91
78961;BMP280;68362;45.970;12.646;2023-12-20T00:04:18;101284.09;;;0.90
78961;BMP280;68362;45.970;12.646;2023-12-20T00:05:21;101281.16;;;1.14
78961;BMP280;68362;45.970;12.646;2023-12-20T00:06:23;101280.59;;;1.00
78961;BMP280;68362;45.970;12.646;2023-12-20T00:07:26;101282.47;;;0.79
78961;BMP280;68362;45.970;12.646;2023-12-20T00:08:33;101275.97;;;0.94
78961;BMP280;68362;45.970;12.646;2023-12-20T00:09:35;101276.78;;;0.95
78961;BMP280;68362;45.970;12.646;2023-12-20T00:10:38;101272.31;;;0.97
78961;BMP280;68362;45.970;12.646;2023-12-20T00:11:40;101280.53;;;0.71
78961;BMP280;68362;45.970;12.646;2023-12-20T00:12:44;101273.03;;;0.68
78961;BMP280;68362;45.970;12.646;2023-12-20T00:13:46;101274.59;;;0.90
78961;BMP280;68362;45.970;12.646;2023-12-20T00:14:52;101268.63;;;1.09
78961;BMP280;68362;45.970;12.646;2023-12-20T00:15:54;101270.41;;;1.18
78961;BMP280;68362;45.970;12.646;2023-12-20T00:16:57;101264.97;;;1.21
78961;BMP280;68362;45.970;12.646;2023-12-20T00:17:59;101259.81;;;1.21
78961;BMP280;68362;45.970;12.646;2023-12-20T00:19:02;101271.09;;;1.20
78961;BMP280;68362;45.970;12.646;2023-12-20T00:20:05;101266.44;;;0.95
78961;BMP280;68362;45.970;12.646;2023-12-20T00:21:08;101261.53;;;0.72
78961;BMP280;68362;45.970;12.646;2023-12-20T00:22:11;101257.44;;;0.70
78961;BMP280;68362;45.970;12.646;2023-12-20T00:23:13;101256.38;;;0.72
78961;BMP280;68362;45.970;12.646;2023-12-20T00:24:15;101255.13;;;0.76
78961;BMP280;68362;45.970;12.646;2023-12-20T00:25:18;101255.56;;;0.81
78961;BMP280;68362;45.970;12.646;2023-12-20T00:26:21;101248.75;;;1.09
78961;BMP280;68362;45.970;12.646;2023-12-20T00:27:23;101252.03;;;1.21
78961;BMP280;68362;45.970;12.646;2023-12-20T00:28:25;101251.50;;;1.27
78961;BMP280;68362;45.970;12.646;2023-12-20T00:29:28;101253.00;;;1.30
78961;BMP280;68362;45.970;12.646;2023-12-20T00:30:30;101255.06;;;1.17
78961;BMP280;68362;45.970;12.646;2023-12-20T00:31:32;101245.09;;;0.83
78961;BMP280;68362;45.970;12.646;2023-12-20T00:32:35;101240.47;;;0.87
78961;BMP280;68362;45.970;12.646;2023-12-20T00:33:38;101242.75;;;0.60
78961;BMP280;68362;45.970;12.646;2023-12-20T00:34:43;101240.78;;;0.43
78961;BMP280;68362;45.970;12.646;2023-12-20T00:35:45;101239.47;;;0.58
78961;BMP280;68362;45.970;12.646;2023-12-20T00:36:47;101240.78;;;0.43
78961;BMP280;68362;45.970;12.646;2023-12-20T00:37:49;101239.38;;;0.29
78961;BMP280;68362;45.970;12.646;2023-12-20T00:38:52;101234.41;;;0.47
78961;BMP280;68362;45.970;12.646;2023-12-20T00:39:54;101235.47;;;0.45
78961;BMP280;68362;45.970;12.646;2023-12-20T00:40:56;101236.97;;;0.47
78961;BMP280;68362;45.970;12.646;2023-12-20T00:41:59;101229.94;;;0.49
78961;BMP280;68362;45.970;12.646;2023-12-20T00:43:01;101231.03;;;0.56
78961;BMP280;68362;45.970;12.646;2023-12-20T00:44:04;101229.84;;;0.60
78961;BMP280;68362;45.970;12.646;2023-12-20T00:45:07;101227.25;;;0.70
78961;BMP280;68362;45.970;12.646;2023-12-20T00:46:09;101226.47;;;0.79
78961;BMP280;68362;45.970;12.646;2023-12-20T00:47:12;101225.38;;;0.92
78961;BMP280;68362;45.970;12.646;2023-12-20T00:48:15;101227.50;;;0.57
78961;BMP280;68362;45.970;12.646;2023-12-20T00:49:17;101222.31;;;0.57
78961;BMP280;68362;45.970;12.646;2023-12-20T00:50:19;101220.59;;;0.77
78961;BMP280;68362;45.970;12.646;2023-12-20T00:51:25;101222.53;;;0.95
78961;BMP280;68362;45.970;12.646;2023-12-20T00:52:27;101221.03;;;1.12
78961;BMP280;68362;45.970;12.646;2023-12-20T00:53:30;101222.13;;;1.19
78961;BMP280;68362;45.970;12.646;2023-12-20T00:54:32;101217.91;;;1.27
78961;BMP280;68362;45.970;12.646;2023-12-20T00:55:34;101216.28;;;1.07
78961;BMP280;68362;45.970;12.646;2023-12-20T00:56:36;101215.03;;;0.72
78961;BMP280;68362;45.970;12.646;2023-12-20T00:57:39;101213.66;;;0.78
78961;BMP280;68362;45.970;12.646;2023-12-20T00:58:41;101216.53;;;1.04
78961;BMP280;68362;45.970;12.646;2023-12-20T00:59:43;101222.78;;;1.01
78961;BMP280;68362;45.970;12.646;2023-12-20T01:00:46;101211.91;;;0.98
78961;BMP280;68362;45.970;12.646;2023-12-20T01:01:48;101217.91;;;1.18
78961;BMP280;68362;45.970;12.646;2023-12-20T01:02:51;101210.97;;;1.38
78961;BMP280;68362;45.970;12.646;2023-12-20T01:03:54;101207.56;;;1.47
78961;BMP280;68362;45.970;12.646;2023-12-20T01:04:56;101207.66;;;1.45
78961;BMP280;68362;45.970;12.646;2023-12-20T01:05:58;101203.91;;;1.20
78961;BMP280;68362;45.970;12.646;2023-12-20T01:07:01;101197.34;;;1.16
78961;BMP280;68362;45.970;12.646;2023-12-20T01:08:04;101200.78;;;0.88
78961;BMP280;68362;45.970;12.646;2023-12-20T01:09:06;101200.22;;;1.23
78961;BMP280;68362;45.970;12.646;2023-12-20T01:10:09;101197.91;;;1.29
78961;BMP280;68362;45.970;12.646;2023-12-20T01:11:11;101194.91;;;1.34
78961;BMP280;68362;45.970;12.646;2023-12-20T01:12:14;101198.97;;;1.37
78961;BMP280;68362;45.970;12.646;2023-12-20T01:13:16;101196.81;;;1.13
78961;BMP280;68362;45.970;12.646;2023-12-20T01:14:19;101192.34;;;0.85
78961;BMP280;68362;45.970;12.646;2023-12-20T01:15:21;101196.25;;;0.90
78961;BMP280;68362;45.970;12.646;2023-12-20T01:16:23;101202.00;;;0.83
78961;BMP280;68362;45.970;12.646;2023-12-20T01:17:25;101197.19;;;0.59
78961;BMP280;68362;45.970;12.646;2023-12-20T01:18:28;101194.38;;;1.01
78961;BMP280;68362;45.970;12.646;2023-12-20T01:19:30;101199.53;;;0.72
78961;BMP280;68362;45.970;12.646;2023-12-20T01:20:32;101194.50;;;0.61
78961;BMP280;68362;45.970;12.646;2023-12-20T01:21:35;101197.34;;;0.77
78961;BMP280;68362;45.970;12.646;2023-12-20T01:22:37;101196.25;;;0.70
78961;BMP280;68362;45.970;12.646;2023-12-20T01:23:39;101200.09;;;0.76
78961;BMP280;68362;45.970;12.646;2023-12-20T01:24:42;101202.94;;;0.82
78961;BMP280;68362;45.970;12.646;2023-12-20T01:25:44;101196.84;;;1.03
78961;BMP280;68362;45.970;12.646;2023-12-20T01:26:46;101197.09;;;1.19
78961;BMP280;68362;45.970;12.646;2023-12-20T01:27:49;101201.75;;;1.06
78961;BMP280;68362;45.970;12.646;2023-12-20T01:28:52;101199.28;;;0.75
78961;BMP280;68362;45.970;12.646;2023-12-20T01:29:54;101197.53;;;1.05
78961;BMP280;68362;45.970;12.646;2023-12-20T01:30:57;101198.19;;;1.07
78961;BMP280;68362;45.970;12.646;2023-12-20T01:31:59;101200.09;;;1.24
78961;BMP280;68362;45.970;12.646;2023-12-20T01:33:02;101195.19;;;1.31
78961;BMP280;68362;45.970;12.646;2023-12-20T01:34:04;101196.13;;;1.30
78961;BMP280;68362;45.970;12.646;2023-12-20T01:35:07;101199.91;;;1.36
78961;BMP280;68362;45.970;12.646;2023-12-20T01:36:09;101200.63;;;1.38
78961;BMP280;68362;45.970;12.646;2023-12-20T01:37:12;101202.50;;;1.36
78961;BMP280;68362;45.970;12.646;2023-12-20T01:38:14;101197.91;;;1.29
78961;BMP280;68362;45.970;12.646;2023-12-20T01:39:17;101193.81;;;1.27
78961;BMP280;68362;45.970;12.646;2023-12-20T01:40:29;101192.72;;;1.10
78961;BMP280;68362;45.970;12.646;2023-12-20T01:41:31;101189.63;;;1.26
78961;BMP280;68362;45.970;12.646;2023-12-20T01:42:33;101192.72;;;0.81
78961;BMP280;68362;45.970;12.646;2023-12-20T01:43:35;101193.81;;;0.98
78961;BMP280;68362;45.970;12.646;2023-12-20T01:44:51;101195.03;;;1.13
78961;BMP280;68362;45.970;12.646;2023-12-20T01:45:56;101184.84;;;1.21
78961;BMP280;68362;45.970;12.646;2023-12-20T01:46:59;101194.53;;;1.00
78961;BMP280;68362;45.970;12.646;2023-12-20T01:48:02;101188.41;;;1.01
78961;BMP280;68362;45.970;12.646;2023-12-20T01:49:06;101186.47;;;1.13
78961;BMP280;68362;45.970;12.646;2023-12-20T01:50:09;101185.13;;;1.18
78961;BMP280;68362;45.970;12.646;2023-12-20T01:51:11;101177.78;;;1.23
78961;BMP280;68362;45.970;12.646;2023-12-20T01:52:13;101178.88;;;1.21
78961;BMP280;68362;45.970;12.646;2023-12-20T01:53:16;101174.50;;;1.21
78961;BMP280;68362;45.970;12.646;2023-12-20T01:54:19;101176.31;;;0.82
78961;BMP280;68362;45.970;12.646;2023-12-20T01:55:22;101176.44;;;0.61
78961;BMP280;68362;45.970;12.646;2023-12-20T01:56:26;101180.84;;;0.40
78961;BMP280;68362;45.970;12.646;2023-12-20T01:57:28;101172.91;;;0.12
78961;BMP280;68362;45.970;12.646;2023-12-20T01:58:30;101174.94;;;0.18
78961;BMP280;68362;45.970;12.646;2023-12-20T01:59:33;101171.47;;;0.29
78961;BMP280;68362;45.970;12.646;2023-12-20T02:00:36;101174.22;;;0.37
78961;BMP280;68362;45.970;12.646;2023-12-20T02:01:39;101168.09;;;0.48
78961;BMP280;68362;45.970;12.646;2023-12-20T02:02:41;101168.22;;;0.46
78961;BMP280;68362;45.970;12.646;2023-12-20T02:03:44;101173.94;;;0.69
78961;BMP280;68362;45.970;12.646;2023-12-20T02:04:47;101168.53;;;0.72
78961;BMP280;68362;45.970;12.646;2023-12-20T02:05:50;101161.63;;;0.82
78961;BMP280;68362;45.970;12.646;2023-12-20T02:06:52;101166.63;;;1.03
78961;BMP280;68362;45.970;12.646;2023-12-20T02:07:55;101164.28;;;1.10
78961;BMP280;68362;45.970;12.646;2023-12-20T02:08:58;101165.41;;;0.98
78961;BMP280;68362;45.970;12.646;2023-12-20T02:10:01;101158.34;;;0.71
78961;BMP280;68362;45.970;12.646;2023-12-20T02:11:03;101164.84;;;0.55
78961;BMP280;68362;45.970;12.646;2023-12-20T02:12:06;101157.41;;;0.62
78961;BMP280;68362;45.970;12.646;2023-12-20T02:13:08;101163.38;;;0.92
78961;BMP280;68362;45.970;12.646;2023-12-20T02:14:10;101149.25;;;1.05
78961;BMP280;68362;45.970;12.646;2023-12-20T02:15:13;101155.06;;;1.17
78961;BMP280;68362;45.970;12.646;2023-12-20T02:16:15;101158.34;;;1.00
78961;BMP280;68362;45.970;12.646;2023-12-20T02:17:17;101156.06;;;0.87
78961;BMP280;68362;45.970;12.646;2023-12-20T02:18:19;101151.97;;;0.84
78961;BMP280;68362;45.970;12.646;2023-12-20T02:19:21;101154.41;;;0.76
78961;BMP280;68362;45.970;12.646;2023-12-20T02:20:24;101152.50;;;0.59
78961;BMP280;68362;45.970;12.646;2023-12-20T02:21:35;101146.94;;;0.73
78961;BMP280;68362;45.970;12.646;2023-12-20T02:22:37;101145.00;;;0.95
78961;BMP280;68362;45.970;12.646;2023-12-20T02:23:39;101143.94;;;1.07
78961;BMP280;68362;45.970;12.646;2023-12-20T02:24:41;101149.09;;;1.17
78961;BMP280;68362;45.970;12.646;2023-12-20T02:25:44;101142.94;;;1.27
78961;BMP280;68362;45.970;12.646;2023-12-20T02:26:46;101152.47;;;1.17
78961;BMP280;68362;45.970;12.646;2023-12-20T02:27:48;101154.09;;;1.18
78961;BMP280;68362;45.970;12.646;2023-12-20T02:28:51;101145.41;;;1.19
78961;BMP280;68362;45.970;12.646;2023-12-20T02:29:53;101144.00;;;1.35
78961;BMP280;68362;45.970;12.646;2023-12-20T02:30:55;101144.53;;;1.38
78961;BMP280;68362;45.970;12.646;2023-12-20T02:31:57;101144.47;;;1.11
78961;BMP280;68362;45.970;12.646;2023-12-20T02:33:00;101142.56;;;1.03
78961;BMP280;68362;45.970;12.646;2023-12-20T02:34:03;101135.47;;;0.66
78961;BMP280;68362;45.970;12.646;2023-12-20T02:35:05;101138.88;;;0.47
78961;BMP280;68362;45.970;12.646;2023-12-20T02:36:08;101133.47;;;0.60
78961;BMP280;68362;45.970;12.646;2023-12-20T02:37:10;101128.88;;;0.64
78961;BMP280;68362;45.970;12.646;2023-12-20T02:38:12;101132.09;;;0.56
78961;BMP280;68362;45.970;12.646;2023-12-20T02:39:15;101122.72;;;0.74
78961;BMP280;68362;45.970;12.646;2023-12-20T02:40:17;101129.66;;;0.93
78961;BMP280;68362;45.970;12.646;2023-12-20T02:41:20;101119.56;;;1.09
78961;BMP280;68362;45.970;12.646;2023-12-20T02:42:22;101116.16;;;1.09
78961;BMP280;68362;45.970;12.646;2023-12-20T02:43:24;101125.13;;;1.24
78961;BMP280;68362;45.970;12.646;2023-12-20T02:44:26;101117.63;;;1.21
78961;BMP280;68362;45.970;12.646;2023-12-20T02:45:29;101126.09;;;1.23
78961;BMP280;68362;45.970;12.646;2023-12-20T02:46:31;101126.91;;;1.14
78961;BMP280;68362;45.970;12.646;2023-12-20T02:47:33;101121.50;;;1.07
78961;BMP280;68362;45.970;12.646;2023-12-20T02:48:35;101111.72;;;0.82
78961;BMP280;68362;45.970;12.646;2023-12-20T02:49:38;101121.78;;;0.56
78961;BMP280;68362;45.970;12.646;2023-12-20T02:50:40;101118.53;;;0.64
78961;BMP280;68362;45.970;12.646;2023-12-20T02:51:42;101117.84;;;0.52
78961;BMP280;68362;45.970;12.646;2023-12-20T02:52:45;101121.50;;;0.59
78961;BMP280;68362;45.970;12.646;2023-12-20T02:53:47;101111.88;;;0.61
78961;BMP280;68362;45.970;12.646;2023-12-20T02:54:49;101112.97;;;0.88
78961;BMP280;68362;45.970;12.646;2023-12-20T02:55:51;101112.66;;;0.91
78961;BMP280;68362;45.970;12.646;2023-12-20T02:56:53;101114.69;;;1.06
78961;BMP280;68362;45.970;12.646;2023-12-20T02:57:56;101099.88;;;0.99
78961;BMP280;68362;45.970;12.646;2023-12-20T02:58:58;101114.25;;;1.11
78961;BMP280;68362;45.970;12.646;2023-12-20T03:00:00;101103.09;;;1.20
78961;BMP280;68362;45.970;12.646;2023-12-20T03:01:02;101112.47;;;1.21
78961;BMP280;68362;45.970;12.646;2023-12-20T03:02:05;101110.06;;;0.91
78961;BMP280;68362;45.970;12.646;2023-12-20T03:03:07;101112.22;;;0.66
78961;BMP280;68362;45.970;12.646;2023-12-20T03:04:09;101108.22;;;0.64
78961;BMP280;68362;45.970;12.646;2023-12-20T03:05:12;101104.22;;;0.69
78961;BMP280;68362;45.970;12.646;2023-12-20T03:06:17;101106.41;;;0.83
78961;BMP280;68362;45.970;12.646;2023-12-20T03:07:20;101101.34;;;1.01
78961;BMP280;68362;45.970;12.646;2023-12-20T03:08:23;101108.06;;;0.84
78961;BMP280;68362;45.970;12.646;2023-12-20T03:09:25;101105.31;;;0.86
78961;BMP280;68362;45.970;12.646;2023-12-20T03:10:29;101100.00;;;0.78
78961;BMP280;68362;45.970;12.646;2023-12-20T03:11:31;101103.97;;;0.72
78961;BMP280;68362;45.970;12.646;2023-12-20T03:12:33;101108.88;;;0.85
78961;BMP280;68362;45.970;12.646;2023-12-20T03:13:35;101100.00;;;0.97
78961;BMP280;68362;45.970;12.646;2023-12-20T03:14:38;101109.25;;;1.00
78961;BMP280;68362;45.970;12.646;2023-12-20T03:15:40;101094.19;;;0.85
78961;BMP280;68362;45.970;12.646;2023-12-20T03:16:47;101097.69;;;1.04
78961;BMP280;68362;45.970;12.646;2023-12-20T03:17:49;101094.34;;;0.84
78961;BMP280;68362;45.970;12.646;2023-12-20T03:18:51;101092.28;;;0.68
78961;BMP280;68362;45.970;12.646;2023-12-20T03:19:54;101093.78;;;0.80
78961;BMP280;68362;45.970;12.646;2023-12-20T03:20:56;101090.47;;;0.98
78961;BMP280;68362;45.970;12.646;2023-12-20T03:21:58;101092.41;;;0.76
78961;BMP280;68362;45.970;12.646;2023-12-20T03:23:03;101080.97;;;0.69
78961;BMP280;68362;45.970;12.646;2023-12-20T03:24:05;101088.72;;;0.69
78961;BMP280;68362;45.970;12.646;2023-12-20T03:25:07;101083.72;;;0.77
78961;BMP280;68362;45.970;12.646;2023-12-20T03:26:10;101079.06;;;0.91
78961;BMP280;68362;45.970;12.646;2023-12-20T03:27:12;101088.13;;;1.14
78961;BMP280;68362;45.970;12.646;2023-12-20T03:28:15;101076.53;;;1.28
78961;BMP280;68362;45.970;12.646;2023-12-20T03:29:18;101075.88;;;1.26
78961;BMP280;68362;45.970;12.646;2023-12-20T03:30:20;101081.66;;;0.81
78961;BMP280;68362;45.970;12.646;2023-12-20T03:31:22;101074.50;;;0.55
78961;BMP280;68362;45.970;12.646;2023-12-20T03:32:24;101075.56;;;0.63
78961;BMP280;68362;45.970;12.646;2023-12-20T03:33:26;101077.88;;;0.56
78961;BMP280;68362;45.970;12.646;2023-12-20T03:34:28;101069.72;;;0.51
78961;BMP280;68362;45.970;12.646;2023-12-20T03:35:31;101074.47;;;0.84
78961;BMP280;68362;45.970;12.646;2023-12-20T03:36:33;101076.91;;;0.96
78961;BMP280;68362;45.970;12.646;2023-12-20T03:37:35;101071.31;;;1.00
78961;BMP280;68362;45.970;12.646;2023-12-20T03:38:37;101067.66;;;0.93
78961;BMP280;68362;45.970;12.646;2023-12-20T03:39:40;101067.38;;;0.87
78961;BMP280;68362;45.970;12.646;2023-12-20T03:40:42;101067.91;;;1.00
78961;BMP280;68362;45.970;12.646;2023-12-20T03:41:45;101058.00;;;1.05
78961;BMP280;68362;45.970;12.646;2023-12-20T03:42:47;101052.91;;;1.13
78961;BMP280;68362;45.970;12.646;2023-12-20T03:43:49;101052.63;;;1.26
78961;BMP280;68362;45.970;12.646;2023-12-20T03:44:52;101053.66;;;1.43
78961;BMP280;68362;45.970;12.646;2023-12-20T03:45:54;101056.69;;;1.56
78961;BMP280;68362;45.970;12.646;2023-12-20T03:46:56;101044.56;;;1.66
78961;BMP280;68362;45.970;12.646;2023-12-20T03:47:58;101055.25;;;1.71
78961;BMP280;68362;45.970;12.646;2023-12-20T03:49:01;101050.22;;;1.70
78961;BMP280;68362;45.970;12.646;2023-12-20T03:50:06;101051.91;;;1.61
78961;BMP280;68362;45.970;12.646;2023-12-20T03:51:08;101042.31;;;1.71
78961;BMP280;68362;45.970;12.646;2023-12-20T03:52:10;101035.16;;;1.65
78961;BMP280;68362;45.970;12.646;2023-12-20T03:53:13;101037.78;;;1.55
78961;BMP280;68362;45.970;12.646;2023-12-20T03:54:15;101043.91;;;1.54
78961;BMP280;68362;45.970;12.646;2023-12-20T03:55:17;101034.88;;;1.41
78961;BMP280;68362;45.970;12.646;2023-12-20T03:56:19;101037.16;;;1.44
78961;BMP280;68362;45.970;12.646;2023-12-20T03:57:21;101033.94;;;1.32
78961;BMP280;68362;45.970;12.646;2023-12-20T03:58:23;101038.38;;;1.40
78961;BMP280;68362;45.970;12.646;2023-12-20T03:59:26;101040.50;;;1.54
78961;BMP280;68362;45.970;12.646;2023-12-20T04:00:28;101040.41;;;1.73
78961;BMP280;68362;45.970;12.646;2023-12-20T04:01:30;101038.94;;;1.89
78961;BMP280;68362;45.970;12.646;2023-12-20T04:02:33;101037.13;;;1.99
78961;BMP280;68362;45.970;12.646;2023-12-20T04:03:35;101035.63;;;1.96
78961;BMP280;68362;45.970;12.646;2023-12-20T04:04:37;101032.53;;;1.93
78961;BMP280;68362;45.970;12.646;2023-12-20T04:05:40;101031.28;;;1.97
78961;BMP280;68362;45.970;12.646;2023-12-20T04:06:43;101034.25;;;2.02
78961;BMP280;68362;45.970;12.646;2023-12-20T04:07:45;101029.69;;;2.04
78961;BMP280;68362;45.970;12.646;2023-12-20T04:08:47;101028.09;;;1.85
78961;BMP280;68362;45.970;12.646;2023-12-20T04:09:50;101035.03;;;1.67
78961;BMP280;68362;45.970;12.646;2023-12-20T04:10:53;101035.22;;;1.73
78961;BMP280;68362;45.970;12.646;2023-12-20T04:11:55;101028.75;;;1.87
78961;BMP280;68362;45.970;12.646;2023-12-20T04:12:57;101027.66;;;1.90
78961;BMP280;68362;45.970;12.646;2023-12-20T04:13:59;101031.38;;;1.77
78961;BMP280;68362;45.970;12.646;2023-12-20T04:15:02;101029.88;;;1.85
78961;BMP280;68362;45.970;12.646;2023-12-20T04:16:11;101027.59;;;1.72
78961;BMP280;68362;45.970;12.646;2023-12-20T04:17:15;101027.06;;;1.78
78961;BMP280;68362;45.970;12.646;2023-12-20T04:18:18;101015.34;;;1.92
78961;BMP280;68362;45.970;12.646;2023-12-20T04:19:20;101022.53;;;1.98
78961;BMP280;68362;45.970;12.646;2023-12-20T04:20:22;101013.84;;;1.71
78961;BMP280;68362;45.970;12.646;2023-12-20T04:21:24;101013.81;;;1.53
78961;BMP280;68362;45.970;12.646;2023-12-20T04:22:27;101019.19;;;1.70
78961;BMP280;68362;45.970;12.646;2023-12-20T04:23:29;101008.66;;;1.81
78961;BMP280;68362;45.970;12.646;2023-12-20T04:24:31;101010.13;;;1.84
78961;BMP280;68362;45.970;12.646;2023-12-20T04:25:33;101015.34;;;1.74
78961;BMP280;68362;45.970;12.646;2023-12-20T04:26:35;101009.34;;;1.73
78961;BMP280;68362;45.970;12.646;2023-12-20T04:27:37;101005.06;;;1.64
78961;BMP280;68362;45.970;12.646;2023-12-20T04:28:40;101000.53;;;1.48
78961;BMP280;68362;45.970;12.646;2023-12-20T04:29:42;101003.91;;;1.21
78961;BMP280;68362;45.970;12.646;2023-12-20T04:30:44;101011.38;;;1.24
78961;BMP280;68362;45.970;12.646;2023-12-20T04:31:47;101005.53;;;1.50
78961;BMP280;68362;45.970;12.646;2023-12-20T04:32:49;101015.22;;;1.48
78961;BMP280;68362;45.970;12.646;2023-12-20T04:33:51;101012.34;;;1.51
78961;BMP280;68362;45.970;12.646;2023-12-20T04:34:54;101007.75;;;1.45
78961;BMP280;68362;45.970;12.646;2023-12-20T04:35:56;101011.41;;;1.52
78961;BMP280;68362;45.970;12.646;2023-12-20T04:36:59;101012.88;;;1.54
78961;BMP280;68362;45.970;12.646;2023-12-20T04:38:02;101006.81;;;1.46
78961;BMP280;68362;45.970;12.646;2023-12-20T04:39:04;101011.09;;;1.55
78961;BMP280;68362;45.970;12.646;2023-12-20T04:40:07;101007.44;;;1.58
78961;BMP280;68362;45.970;12.646;2023-12-20T04:41:10;101005.06;;;1.64
78961;BMP280;68362;45.970;12.646;2023-12-20T04:42:12;101002.25;;;1.58
78961;BMP280;68362;45.970;12.646;2023-12-20T04:43:14;101002.34;;;1.66
78961;BMP280;68362;45.970;12.646;2023-12-20T04:44:17;100996.25;;;1.75
78961;BMP280;68362;45.970;12.646;2023-12-20T04:45:19;101000.78;;;1.73
78961;BMP280;68362;45.970;12.646;2023-12-20T04:46:21;101001.69;;;1.82
78961;BMP280;68362;45.970;12.646;2023-12-20T04:47:23;100994.06;;;1.62
78961;BMP280;68362;45.970;12.646;2023-12-20T04:48:25;100988.19;;;1.60
78961;BMP280;68362;45.970;12.646;2023-12-20T04:49:28;100992.72;;;1.58
78961;BMP280;68362;45.970;12.646;2023-12-20T04:50:30;100989.59;;;1.54
78961;BMP280;68362;45.970;12.646;2023-12-20T04:51:33;100988.66;;;1.73
78961;BMP280;68362;45.970;12.646;2023-12-20T04:52:36;100976.69;;;1.54
78961;BMP280;68362;45.970;12.646;2023-12-20T04:53:38;100979.31;;;1.45
78961;BMP280;68362;45.970;12.646;2023-12-20T04:54:40;100970.00;;;1.34
78961;BMP280;68362;45.970;12.646;2023-12-20T04:55:45;100969.41;;;1.40
78961;BMP280;68362;45.970;12.646;2023-12-20T04:56:48;100968.31;;;1.43
78961;BMP280;68362;45.970;12.646;2023-12-20T04:57:50;100962.28;;;1.24
78961;BMP280;68362;45.970;12.646;2023-12-20T04:58:52;100957.00;;;1.16
78961;BMP280;68362;45.970;12.646;2023-12-20T04:59:54;100953.63;;;1.33
78961;BMP280;68362;45.970;12.646;2023-12-20T05:00:56;100954.69;;;1.23
78961;BMP280;68362;45.970;12.646;2023-12-20T05:01:59;100952.78;;;1.15
78961;BMP280;68362;45.970;12.646;2023-12-20T05:03:01;100961.47;;;1.24
78961;BMP280;68362;45.970;12.646;2023-12-20T05:04:03;100961.19;;;1.27
78961;BMP280;68362;45.970;12.646;2023-12-20T05:05:06;100965.22;;;1.57
78961;BMP280;68362;45.970;12.646;2023-12-20T05:06:09;100965.78;;;1.78
78961;BMP280;68362;45.970;12.646;2023-12-20T05:07:11;100957.44;;;1.85
78961;BMP280;68362;45.970;12.646;2023-12-20T05:08:14;100961.69;;;1.94
78961;BMP280;68362;45.970;12.646;2023-12-20T05:09:16;100965.31;;;2.01
78961;BMP280;68362;45.970;12.646;2023-12-20T05:10:18;100968.25;;;2.06
78961;BMP280;68362;45.970;12.646;2023-12-20T05:11:20;100970.25;;;2.12
78961;BMP280;68362;45.970;12.646;2023-12-20T05:12:23;100974.19;;;2.16
78961;BMP280;68362;45.970;12.646;2023-12-20T05:13:25;100972.72;;;2.22
78961;BMP280;68362;45.970;12.646;2023-12-20T05:14:42;100980.81;;;2.19
78961;BMP280;68362;45.970;12.646;2023-12-20T05:15:45;100982.91;;;2.15
78961;BMP280;68362;45.970;12.646;2023-12-20T05:16:47;100981.88;;;2.08
78961;BMP280;68362;45.970;12.646;2023-12-20T05:17:49;100983.78;;;2.06
78961;BMP280;68362;45.970;12.646;2023-12-20T05:18:51;100982.16;;;2.05
78961;BMP280;68362;45.970;12.646;2023-12-20T05:19:54;100972.84;;;2.12
78961;BMP280;68362;45.970;12.646;2023-12-20T05:20:57;100977.81;;;2.05
78961;BMP280;68362;45.970;12.646;2023-12-20T05:22:01;100978.91;;;2.03
78961;BMP280;68362;45.970;12.646;2023-12-20T05:23:03;100975.03;;;1.81
78961;BMP280;68362;45.970;12.646;2023-12-20T05:24:05;100982.09;;;1.61
78961;BMP280;68362;45.970;12.646;2023-12-20T05:25:08;100985.66;;;1.50
78961;BMP280;68362;45.970;12.646;2023-12-20T05:26:10;100980.97;;;1.46
78961;BMP280;68362;45.970;12.646;2023-12-20T05:27:12;100983.84;;;1.43
78961;BMP280;68362;45.970;12.646;2023-12-20T05:28:15;100980.41;;;1.42
78961;BMP280;68362;45.970;12.646;2023-12-20T05:29:17;100983.50;;;1.73
78961;BMP280;68362;45.970;12.646;2023-12-20T05:30:19;100982.78;;;1.81
78961;BMP280;68362;45.970;12.646;2023-12-20T05:31:22;100972.97;;;1.57
78961;BMP280;68362;45.970;12.646;2023-12-20T05:32:24;100971.56;;;1.45
78961;BMP280;68362;45.970;12.646;2023-12-20T05:33:26;100968.88;;;1.37
78961;BMP280;68362;45.970;12.646;2023-12-20T05:34:29;100970.00;;;1.34
78961;BMP280;68362;45.970;12.646;2023-12-20T05:35:31;100978.03;;;1.31
78961;BMP280;68362;45.970;12.646;2023-12-20T05:36:33;100983.88;;;1.61
78961;BMP280;68362;45.970;12.646;2023-12-20T05:37:35;100980.31;;;1.79
78961;BMP280;68362;45.970;12.646;2023-12-20T05:38:38;100980.31;;;1.79
78961;BMP280;68362;45.970;12.646;2023-12-20T05:39:40;100978.31;;;1.73
78961;BMP280;68362;45.970;12.646;2023-12-20T05:40:42;100978.94;;;1.67
78961;BMP280;68362;45.970;12.646;2023-12-20T05:41:44;100973.94;;;1.74
78961;BMP280;68362;45.970;12.646;2023-12-20T05:42:46;100967.22;;;1.63
78961;BMP280;68362;45.970;12.646;2023-12-20T05:43:48;100961.16;;;1.54
78961;BMP280;68362;45.970;12.646;2023-12-20T05:44:50;100967.94;;;1.38
78961;BMP280;68362;45.970;12.646;2023-12-20T05:45:56;100963.97;;;1.33
78961;BMP280;68362;45.970;12.646;2023-12-20T05:46:58;100962.69;;;1.29
78961;BMP280;68362;45.970;12.646;2023-12-20T05:48:00;100956.50;;;1.30
78961;BMP280;68362;45.970;12.646;2023-12-20T05:49:03;100951.34;;;1.30
78961;BMP280;68362;45.970;12.646;2023-12-20T05:50:05;100956.41;;;1.50
78961;BMP280;68362;45.970;12.646;2023-12-20T05:51:11;100959.91;;;1.76
78961;BMP280;68362;45.970;12.646;2023-12-20T05:52:13;100958.31;;;1.75
78961;BMP280;68362;45.970;12.646;2023-12-20T05:53:15;100957.03;;;1.79
78961;BMP280;68362;45.970;12.646;2023-12-20T05:54:18;100960.13;;;2.01
78961;BMP280;68362;45.970;12.646;2023-12-20T05:55:20;100959.50;;;2.07
78961;BMP280;68362;45.970;12.646;2023-12-20T05:56:22;100950.81;;;2.08